sensor_id;sensor_type;location;lat;lon;timestamp;pressure;altitude;pressure_sealevel;temperature;humidity
64340;BME280;63709;53.258;-8.814;2022-12-10T00:01:22;101208.53;;;0.87;100.00
64340;BME280;63709;53.258;-8.814;2022-12-10T00:03:47;101212.03;;;0.87;100.00
64340;BME280;63709;53.258;-8.814;2022-12-10T00:06:19;101149.31;;;0.44;100.00
64340;BME280;63709;53.258;-8.814;2022-12-10T00:08:45;101171.66;;;0.59;100.00
64340;BME280;63709;53.258;-8.814;2022-12-10T00:11:12;101235.63;;;0.89;100.00
64340;BME280;63709;53.258;-8.814;2022-12-10T00:13:39;101199.47;;;0.67;100.00
64340;BME280;63709;53.258;-8.814;2022-12-10T00:16:07;101236.50;;;0.89;100.00
64340;BME280;63709;53.258;-8.814;2022-12-10T00:18:35;101226.94;;;0.87;100.00
64340;BME280;63709;53.258;-8.814;2022-12-10T00:21:09;101235.03;;;0.79;100.00
64340;BME280;63709;53.258;-8.814;2022-12-10T00:23:36;101186.75;;;0.52;100.00
64340;BME280;63709;53.258;-8.814;2022-12-10T00:26:07;101230.78;;;0.73;100.00
64340;BME280;63709;53.258;-8.814;2022-12-10T00:28:34;101217.94;;;0.64;100.00
64340;BME280;63709;53.258;-8.814;2022-12-10T00:31:03;101234.34;;;0.72;100.00
64340;BME280;63709;53.258;-8.814;2022-12-10T00:33:29;101155.00;;;0.29;100.00
64340;BME280;63709;53.258;-8.814;2022-12-10T00:35:55;101167.84;;;0.39;100.00
64340;BME280;63709;53.258;-8.814;2022-12-10T00:38:20;101218.66;;;0.69;100.00
64340;BME280;63709;53.258;-8.814;2022-12-10T00:40:46;101166.25;;;0.34;100.00
64340;BME280;63709;53.258;-8.814;2022-12-10T00:43:14;101225.59;;;0.72;100.00
64340;BME280;63709;53.258;-8.814;2022-12-10T00:45:39;101219.41;;;0.75;100.00
64340;BME280;63709;53.258;-8.814;2022-12-10T00:48:04;101179.84;;;0.48;100.00
64340;BME280;63709;53.258;-8.814;2022-12-10T00:50:31;101215.00;;;0.75;100.00
64340;BME280;63709;53.258;-8.814;2022-12-10T00:52:58;101225.47;;;0.77;100.00
64340;BME280;63709;53.258;-8.814;2022-12-10T00:55:24;101220.13;;;0.80;100.00
64340;BME280;63709;53.258;-8.814;2022-12-10T00:57:49;101211.41;;;0.78;100.00
64340;BME280;63709;53.258;-8.814;2022-12-10T01:00:15;101180.25;;;0.65;100.00
64340;BME280;63709;53.258;-8.814;2022-12-10T01:02:41;101161.47;;;0.48;100.00
64340;BME280;63709;53.258;-8.814;2022-12-10T01:05:07;101175.13;;;0.61;100.00
64340;BME280;63709;53.258;-8.814;2022-12-10T01:07:33;101133.00;;;0.33;100.00
64340;BME280;63709;53.258;-8.814;2022-12-10T01:09:58;101201.00;;;0.75;100.00
64340;BME280;63709;53.258;-8.814;2022-12-10T01:12:25;101192.44;;;0.68;100.00
64340;BME280;63709;53.258;-8.814;2022-12-10T01:14:51;101130.47;;;0.30;100.00
64340;BME280;63709;53.258;-8.814;2022-12-10T01:17:19;101183.03;;;0.59;100.00
64340;BME280;63709;53.258;-8.814;2022-12-10T01:19:46;101148.53;;;0.40;100.00
64340;BME280;63709;53.258;-8.814;2022-12-10T01:22:12;101207.16;;;0.73;100.00
64340;BME280;63709;53.258;-8.814;2022-12-10T01:24:38;101200.25;;;0.69;100.00
64340;BME280;63709;53.258;-8.814;2022-12-10T01:27:04;101196.00;;;0.65;100.00
64340;BME280;63709;53.258;-8.814;2022-12-10T01:29:30;101164.34;;;0.39;100.00
64340;BME280;63709;53.258;-8.814;2022-12-10T01:31:57;101161.72;;;0.39;100.00
64340;BME280;63709;53.258;-8.814;2022-12-10T01:34:26;101180.75;;;0.47;100.00
64340;BME280;63709;53.258;-8.814;2022-12-10T01:36:53;101204.00;;;0.61;100.00
64340;BME280;63709;53.258;-8.814;2022-12-10T01:39:22;101172.31;;;0.36;100.00
64340;BME280;63709;53.258;-8.814;2022-12-10T01:41:52;101204.25;;;0.52;100.00
64340;BME280;63709;53.258;-8.814;2022-12-10T01:46:48;101203.53;;;0.46;100.00
64340;BME280;63709;53.258;-8.814;2022-12-10T01:49:25;101203.53;;;0.46;100.00
64340;BME280;63709;53.258;-8.814;2022-12-10T01:51:53;101202.63;;;0.47;100.00
64340;BME280;63709;53.258;-8.814;2022-12-10T01:54:23;101126.88;;;0.01;100.00
64340;BME280;63709;53.258;-8.814;2022-12-10T01:56:58;101193.09;;;0.43;100.00
64340;BME280;63709;53.258;-8.814;2022-12-10T01:59:26;101172.31;;;0.36;100.00
64340;BME280;63709;53.258;-8.814;2022-12-10T02:12:28;101191.53;;;0.36;100.00
64340;BME280;63709;53.258;-8.814;2022-12-10T02:15:11;101170.16;;;0.19;100.00
64340;BME280;63709;53.258;-8.814;2022-12-10T02:18:12;101180.16;;;0.37;100.00
64340;BME280;63709;53.258;-8.814;2022-12-10T02:20:51;101193.88;;;0.47;100.00
64340;BME280;63709;53.258;-8.814;2022-12-10T02:23:36;101200.03;;;0.46;100.00
64340;BME280;63709;53.258;-8.814;2022-12-10T02:29:33;101143.44;;;0.03;100.00
64340;BME280;63709;53.258;-8.814;2022-12-10T02:32:13;101193.38;;;0.33;100.00
64340;BME280;63709;53.258;-8.814;2022-12-10T02:34:42;101195.00;;;0.38;100.00
64340;BME280;63709;53.258;-8.814;2022-12-10T02:37:17;101181.09;;;0.35;100.00
64340;BME280;63709;53.258;-8.814;2022-12-10T02:39:47;101180.88;;;0.42;100.00
64340;BME280;63709;53.258;-8.814;2022-12-10T02:42:16;101178.31;;;0.41;100.00
64340;BME280;63709;53.258;-8.814;2022-12-10T02:44:44;101163.50;;;0.38;100.00
64340;BME280;63709;53.258;-8.814;2022-12-10T02:47:12;101173.72;;;0.47;100.00
64340;BME280;63709;53.258;-8.814;2022-12-10T02:49:41;101185.22;;;0.43;100.00
64340;BME280;63709;53.258;-8.814;2022-12-10T02:52:13;101173.09;;;0.39;100.00
64340;BME280;63709;53.258;-8.814;2022-12-10T02:54:44;101174.13;;;0.34;100.00
64340;BME280;63709;53.258;-8.814;2022-12-10T03:00:13;101103.25;;;-0.32;100.00
64340;BME280;63709;53.258;-8.814;2022-12-10T03:05:41;101170.50;;;0.05;100.00
64340;BME280;63709;53.258;-8.814;2022-12-10T03:08:24;101180.09;;;0.06;100.00
64340;BME280;63709;53.258;-8.814;2022-12-10T03:10:58;101177.44;;;0.08;100.00
64340;BME280;63709;53.258;-8.814;2022-12-10T03:13:32;101152.66;;;-0.15;100.00
64340;BME280;63709;53.258;-8.814;2022-12-10T03:16:02;101129.19;;;-0.21;100.00
64340;BME280;63709;53.258;-8.814;2022-12-10T03:18:31;101160.94;;;0.03;100.00
64340;BME280;63709;53.258;-8.814;2022-12-10T03:21:04;101169.53;;;0.09;100.00
64340;BME280;63709;53.258;-8.814;2022-12-10T03:23:33;101168.59;;;0.10;100.00
64340;BME280;63709;53.258;-8.814;2022-12-10T03:26:02;101131.28;;;-0.01;100.00
64340;BME280;63709;53.258;-8.814;2022-12-10T03:28:34;101176.06;;;0.26;100.00
64340;BME280;63709;53.258;-8.814;2022-12-10T03:31:01;101160.53;;;0.18;100.00
64340;BME280;63709;53.258;-8.814;2022-12-10T03:33:28;101167.41;;;0.23;100.00
64340;BME280;63709;53.258;-8.814;2022-12-10T03:35:53;101168.13;;;0.29;100.00
64340;BME280;63709;53.258;-8.814;2022-12-10T03:38:20;101170.81;;;0.27;100.00
64340;BME280;63709;53.258;-8.814;2022-12-10T03:40:45;101148.31;;;0.17;100.00
64340;BME280;63709;53.258;-8.814;2022-12-10T03:43:15;101143.19;;;0.12;100.00
64340;BME280;63709;53.258;-8.814;2022-12-10T03:45:40;101147.19;;;0.26;100.00
64340;BME280;63709;53.258;-8.814;2022-12-10T03:48:08;101112.81;;;0.04;100.00
64340;BME280;63709;53.258;-8.814;2022-12-10T03:50:34;101135.63;;;0.34;100.00
64340;BME280;63709;53.258;-8.814;2022-12-10T03:52:59;101133.75;;;0.38;100.00
64340;BME280;63709;53.258;-8.814;2022-12-10T03:55:28;101131.25;;;0.33;100.00
64340;BME280;63709;53.258;-8.814;2022-12-10T03:57:53;101132.94;;;0.36;100.00
64340;BME280;63709;53.258;-8.814;2022-12-10T04:00:20;101139.09;;;0.35;100.00
64340;BME280;63709;53.258;-8.814;2022-12-10T04:02:46;101132.16;;;0.32;100.00
64340;BME280;63709;53.258;-8.814;2022-12-10T04:05:11;101095.22;;;0.07;100.00
64340;BME280;63709;53.258;-8.814;2022-12-10T04:07:37;101122.69;;;0.27;100.00
64340;BME280;63709;53.258;-8.814;2022-12-10T04:10:04;101128.59;;;0.35;100.00
64340;BME280;63709;53.258;-8.814;2022-12-10T04:12:31;101120.56;;;0.41;100.00
64340;BME280;63709;53.258;-8.814;2022-12-10T04:14:56;101128.50;;;0.38;100.00
64340;BME280;63709;53.258;-8.814;2022-12-10T04:17:42;101109.56;;;0.27;100.00
64340;BME280;63709;53.258;-8.814;2022-12-10T04:20:08;101132.94;;;0.36;100.00
64340;BME280;63709;53.258;-8.814;2022-12-10T04:22:54;101111.28;;;0.28;100.00
64340;BME280;63709;53.258;-8.814;2022-12-10T04:25:39;101130.38;;;0.34;100.00
64340;BME280;63709;53.258;-8.814;2022-12-10T04:28:28;101115.69;;;0.26;100.00
64340;BME280;63709;53.258;-8.814;2022-12-10T04:30:53;101127.91;;;0.28;100.00
64340;BME280;63709;53.258;-8.814;2022-12-10T04:33:19;101131.44;;;0.27;100.00
64340;BME280;63709;53.258;-8.814;2022-12-10T04:35:44;101135.84;;;0.25;100.00
64340;BME280;63709;53.258;-8.814;2022-12-10T04:38:11;101130.56;;;0.27;100.00
64340;BME280;63709;53.258;-8.814;2022-12-10T04:40:36;101125.47;;;0.20;100.00
64340;BME280;63709;53.258;-8.814;2022-12-10T04:43:03;101126.31;;;0.22;100.00
64340;BME280;63709;53.258;-8.814;2022-12-10T04:45:29;101134.19;;;0.22;100.00
64340;BME280;63709;53.258;-8.814;2022-12-10T04:47:55;101121.09;;;0.21;100.00
64340;BME280;63709;53.258;-8.814;2022-12-10T04:50:20;101128.09;;;0.20;100.00
64340;BME280;63709;53.258;-8.814;2022-12-10T04:52:46;101104.19;;;-0.02;100.00
64340;BME280;63709;53.258;-8.814;2022-12-10T04:55:13;101128.53;;;0.04;100.00
64340;BME280;63709;53.258;-8.814;2022-12-10T04:57:41;101136.31;;;0.08;100.00
64340;BME280;63709;53.258;-8.814;2022-12-10T05:00:07;101093.97;;;-0.11;100.00
64340;BME280;63709;53.258;-8.814;2022-12-10T05:02:33;101117.31;;;0.00;100.00
64340;BME280;63709;53.258;-8.814;2022-12-10T05:05:00;101132.78;;;0.09;100.00
64340;BME280;63709;53.258;-8.814;2022-12-10T05:07:26;101118.94;;;0.04;100.00
64340;BME280;63709;53.258;-8.814;2022-12-10T05:09:52;101135.31;;;0.12;100.00
64340;BME280;63709;53.258;-8.814;2022-12-10T05:12:18;101128.97;;;0.21;100.00
64340;BME280;63709;53.258;-8.814;2022-12-10T05:14:45;101138.53;;;0.23;100.00
64340;BME280;63709;53.258;-8.814;2022-12-10T05:17:10;101135.84;;;0.25;100.00
64340;BME280;63709;53.258;-8.814;2022-12-10T05:19:36;101118.81;;;0.09;100.00
64340;BME280;63709;53.258;-8.814;2022-12-10T05:22:01;101128.03;;;0.22;100.00
64340;BME280;63709;53.258;-8.814;2022-12-10T05:24:45;101108.81;;;0.21;100.00
64340;BME280;63709;53.258;-8.814;2022-12-10T05:27:11;101116.47;;;0.29;100.00
64340;BME280;63709;53.258;-8.814;2022-12-10T05:29:37;101079.38;;;0.12;100.00
64340;BME280;63709;53.258;-8.814;2022-12-10T05:32:08;101103.47;;;0.26;100.00
64340;BME280;63709;53.258;-8.814;2022-12-10T05:34:33;101106.94;;;0.27;100.00
64340;BME280;63709;53.258;-8.814;2022-12-10T05:37:05;101113.13;;;0.24;100.00
64340;BME280;63709;53.258;-8.814;2022-12-10T05:39:32;101118.31;;;0.26;100.00
64340;BME280;63709;53.258;-8.814;2022-12-10T05:42:00;101113.91;;;0.28;100.00
64340;BME280;63709;53.258;-8.814;2022-12-10T05:44:26;101111.38;;;0.24;100.00
64340;BME280;63709;53.258;-8.814;2022-12-10T05:46:56;101104.53;;;0.19;100.00
64340;BME280;63709;53.258;-8.814;2022-12-10T05:49:24;101079.53;;;0.06;100.00
64340;BME280;63709;53.258;-8.814;2022-12-10T05:51:50;101032.28;;;-0.26;100.00
64340;BME280;63709;53.258;-8.814;2022-12-10T05:54:22;101082.44;;;-0.05;100.00
64340;BME280;63709;53.258;-8.814;2022-12-10T05:56:49;101066.78;;;-0.08;100.00
64340;BME280;63709;53.258;-8.814;2022-12-10T05:59:15;101068.41;;;-0.04;100.00
64340;BME280;63709;53.258;-8.814;2022-12-10T06:01:40;101089.16;;;0.05;100.00
64340;BME280;63709;53.258;-8.814;2022-12-10T06:04:08;101089.59;;;-0.12;100.00
64340;BME280;63709;53.258;-8.814;2022-12-10T06:06:36;101081.66;;;-0.09;100.00
64340;BME280;63709;53.258;-8.814;2022-12-10T06:09:03;101087.03;;;-0.13;100.00
64340;BME280;63709;53.258;-8.814;2022-12-10T06:11:29;101082.91;;;-0.22;100.00
64340;BME280;63709;53.258;-8.814;2022-12-10T06:13:56;101064.13;;;-0.41;100.00
64340;BME280;63709;53.258;-8.814;2022-12-10T06:16:24;101089.28;;;-0.32;100.00
64340;BME280;63709;53.258;-8.814;2022-12-10T06:18:51;101085.81;;;-0.34;100.00
64340;BME280;63709;53.258;-8.814;2022-12-10T06:21:18;101082.53;;;-0.42;100.00
64340;BME280;63709;53.258;-8.814;2022-12-10T06:23:44;101085.59;;;-0.59;100.00
64340;BME280;63709;53.258;-8.814;2022-12-10T06:26:15;101093.47;;;-0.61;100.00
64340;BME280;63709;53.258;-8.814;2022-12-10T06:28:44;101098.00;;;-0.66;100.00
64340;BME280;63709;53.258;-8.814;2022-12-10T06:31:10;101092.69;;;-0.63;100.00
64340;BME280;63709;53.258;-8.814;2022-12-10T06:33:36;101095.19;;;-0.58;100.00
64340;BME280;63709;53.258;-8.814;2022-12-10T06:36:07;101090.06;;;-0.63;100.00
64340;BME280;63709;53.258;-8.814;2022-12-10T06:38:34;101081.16;;;-0.57;100.00
64340;BME280;63709;53.258;-8.814;2022-12-10T06:41:07;101085.59;;;-0.59;100.00
64340;BME280;63709;53.258;-8.814;2022-12-10T06:43:33;101043.41;;;-0.86;100.00
64340;BME280;63709;53.258;-8.814;2022-12-10T06:46:11;101089.16;;;-0.62;100.00
64340;BME280;63709;53.258;-8.814;2022-12-10T06:48:40;101093.47;;;-0.59;100.00
64340;BME280;63709;53.258;-8.814;2022-12-10T06:51:06;101083.84;;;-0.59;100.00
64340;BME280;63709;53.258;-8.814;2022-12-10T06:53:33;101090.91;;;-0.62;100.00
64340;BME280;63709;53.258;-8.814;2022-12-10T06:55:59;101077.22;;;-0.74;100.00
64340;BME280;63709;53.258;-8.814;2022-12-10T06:58:29;101093.59;;;-0.65;100.00
64340;BME280;63709;53.258;-8.814;2022-12-10T07:01:05;101071.13;;;-0.76;100.00
64340;BME280;63709;53.258;-8.814;2022-12-10T07:03:37;101085.09;;;-0.75;100.00
64340;BME280;63709;53.258;-8.814;2022-12-10T07:06:04;101025.72;;;-1.12;100.00
64340;BME280;63709;53.258;-8.814;2022-12-10T07:08:31;101093.56;;;-0.64;100.00
64340;BME280;63709;53.258;-8.814;2022-12-10T07:10:58;101071.97;;;-0.74;100.00
64340;BME280;63709;53.258;-8.814;2022-12-10T07:13:24;101084.81;;;-0.63;100.00
64340;BME280;63709;53.258;-8.814;2022-12-10T07:15:50;101079.63;;;-0.66;100.00
64340;BME280;63709;53.258;-8.814;2022-12-10T07:18:16;101088.28;;;-0.62;100.00
64340;BME280;63709;53.258;-8.814;2022-12-10T07:20:42;101086.53;;;-0.62;100.00
64340;BME280;63709;53.258;-8.814;2022-12-10T07:23:14;101091.88;;;-0.66;100.00
64340;BME280;63709;53.258;-8.814;2022-12-10T07:25:45;101071.09;;;-0.74;100.00
64340;BME280;63709;53.258;-8.814;2022-12-10T07:28:11;101084.88;;;-0.66;100.00
64340;BME280;63709;53.258;-8.814;2022-12-10T07:30:39;101076.31;;;-0.73;100.00
64340;BME280;63709;53.258;-8.814;2022-12-10T07:33:06;101096.09;;;-0.59;100.00
64340;BME280;63709;53.258;-8.814;2022-12-10T07:35:32;101094.22;;;-0.56;100.00
64340;BME280;63709;53.258;-8.814;2022-12-10T07:37:58;101099.47;;;-0.56;100.00
64340;BME280;63709;53.258;-8.814;2022-12-10T07:40:23;101094.16;;;-0.53;100.00
64340;BME280;63709;53.258;-8.814;2022-12-10T07:42:49;101091.53;;;-0.53;100.00
64340;BME280;63709;53.258;-8.814;2022-12-10T07:45:15;101090.66;;;-0.53;100.00
64340;BME280;63709;53.258;-8.814;2022-12-10T07:47:42;101095.97;;;-0.55;100.00
64340;BME280;63709;53.258;-8.814;2022-12-10T07:50:08;101082.13;;;-0.61;100.00
64340;BME280;63709;53.258;-8.814;2022-12-10T07:52:33;101089.88;;;-0.55;100.00
64340;BME280;63709;53.258;-8.814;2022-12-10T07:54:59;101078.63;;;-0.60;100.00
64340;BME280;63709;53.258;-8.814;2022-12-10T07:57:28;101088.28;;;-0.62;100.00
64340;BME280;63709;53.258;-8.814;2022-12-10T07:59:54;101090.00;;;-0.61;100.00
64340;BME280;63709;53.258;-8.814;2022-12-10T08:02:21;101086.59;;;-0.65;100.00
64340;BME280;63709;53.258;-8.814;2022-12-10T08:04:47;101056.38;;;-0.80;100.00
64340;BME280;63709;53.258;-8.814;2022-12-10T08:07:14;101082.34;;;-0.70;100.00
64340;BME280;63709;53.258;-8.814;2022-12-10T08:09:39;101099.66;;;-0.63;100.00
64340;BME280;63709;53.258;-8.814;2022-12-10T08:12:05;101094.41;;;-0.63;100.00
64340;BME280;63709;53.258;-8.814;2022-12-10T08:14:30;101098.78;;;-0.62;100.00
64340;BME280;63709;53.258;-8.814;2022-12-10T08:16:56;101097.88;;;-0.61;100.00
64340;BME280;63709;53.258;-8.814;2022-12-10T08:19:21;101074.66;;;-0.78;100.00
64340;BME280;63709;53.258;-8.814;2022-12-10T08:21:47;101072.94;;;-0.78;100.00
64340;BME280;63709;53.258;-8.814;2022-12-10T08:24:13;101100.41;;;-0.58;100.00
64340;BME280;63709;53.258;-8.814;2022-12-10T08:26:38;101099.56;;;-0.59;100.00
64340;BME280;63709;53.258;-8.814;2022-12-10T08:29:10;101095.25;;;-0.61;100.00
64340;BME280;63709;53.258;-8.814;2022-12-10T08:31:35;101103.06;;;-0.60;100.00
64340;BME280;63709;53.258;-8.814;2022-12-10T08:34:01;101099.69;;;-0.65;100.00
64340;BME280;63709;53.258;-8.814;2022-12-10T08:36:27;101108.28;;;-0.58;100.00
64340;BME280;63709;53.258;-8.814;2022-12-10T08:38:55;101108.41;;;-0.63;100.00
64340;BME280;63709;53.258;-8.814;2022-12-10T08:41:22;101106.56;;;-0.59;100.00
64340;BME280;63709;53.258;-8.814;2022-12-10T08:43:51;101107.44;;;-0.59;100.00
64340;BME280;63709;53.258;-8.814;2022-12-10T08:46:17;101099.56;;;-0.59;100.00
64340;BME280;63709;53.258;-8.814;2022-12-10T08:48:43;101115.03;;;-0.48;100.00
64340;BME280;63709;53.258;-8.814;2022-12-10T08:51:11;101113.19;;;-0.44;100.00
64340;BME280;63709;53.258;-8.814;2022-12-10T08:53:38;101100.22;;;-0.51;100.00
64340;BME280;63709;53.258;-8.814;2022-12-10T08:56:04;101102.78;;;-0.49;100.00
64340;BME280;63709;53.258;-8.814;2022-12-10T08:58:29;101115.03;;;-0.48;100.00
64340;BME280;63709;53.258;-8.814;2022-12-10T09:00:56;101111.63;;;-0.52;100.00
64340;BME280;63709;53.258;-8.814;2022-12-10T09:03:22;101109.09;;;-0.56;100.00
64340;BME280;63709;53.258;-8.814;2022-12-10T09:05:47;101114.13;;;-0.47;100.00
64340;BME280;63709;53.258;-8.814;2022-12-10T09:08:13;101111.31;;;-0.41;100.00
64340;BME280;63709;53.258;-8.814;2022-12-10T09:10:39;101116.44;;;-0.35;100.00
64340;BME280;63709;53.258;-8.814;2022-12-10T09:13:07;101128.50;;;-0.28;100.00
64340;BME280;63709;53.258;-8.814;2022-12-10T09:15:33;101119.56;;;-0.20;100.00
64340;BME280;63709;53.258;-8.814;2022-12-10T09:17:58;101115.97;;;-0.16;100.00
64340;BME280;63709;53.258;-8.814;2022-12-10T09:20:27;101110.78;;;-0.19;100.00
64340;BME280;63709;53.258;-8.814;2022-12-10T09:22:53;101094.06;;;-0.15;100.00
64340;BME280;63709;53.258;-8.814;2022-12-10T09:25:19;101118.81;;;0.09;100.00
64340;BME280;63709;53.258;-8.814;2022-12-10T09:27:48;101113.38;;;0.15;100.00
64340;BME280;63709;53.258;-8.814;2022-12-10T09:30:14;101117.56;;;0.22;100.00
64340;BME280;63709;53.258;-8.814;2022-12-10T09:32:41;101081.22;;;0.08;100.00
64340;BME280;63709;53.258;-8.814;2022-12-10T09:35:07;101107.66;;;0.32;100.00
64340;BME280;63709;53.258;-8.814;2022-12-10T09:37:33;101111.75;;;0.42;100.00
64340;BME280;63709;53.258;-8.814;2022-12-10T09:39:59;101118.66;;;0.46;100.00
64340;BME280;63709;53.258;-8.814;2022-12-10T09:48:30;101098.72;;;0.39;100.00
64340;BME280;63709;53.258;-8.814;2022-12-10T09:51:25;101111.25;;;0.59;100.00
64340;BME280;63709;53.258;-8.814;2022-12-10T09:53:59;101099.66;;;0.67;100.00
64340;BME280;63709;53.258;-8.814;2022-12-10T09:56:35;101085.28;;;0.79;100.00
64340;BME280;63709;53.258;-8.814;2022-12-10T09:59:08;101072.72;;;0.89;100.00
64340;BME280;63709;53.258;-8.814;2022-12-10T10:01:37;101089.66;;;1.08;100.00
64340;BME280;63709;53.258;-8.814;2022-12-10T10:04:04;101089.94;;;1.26;100.00
64340;BME280;63709;53.258;-8.814;2022-12-10T10:06:30;101088.66;;;1.39;100.00
64340;BME280;63709;53.258;-8.814;2022-12-10T10:08:58;101093.41;;;1.54;100.00
64340;BME280;63709;53.258;-8.814;2022-12-10T10:11:31;101102.78;;;1.88;100.00
64340;BME280;63709;53.258;-8.814;2022-12-10T10:14:05;101099.31;;;2.12;100.00
64340;BME280;63709;53.258;-8.814;2022-12-10T10:16:43;101095.84;;;2.35;100.00
64340;BME280;63709;53.258;-8.814;2022-12-10T10:19:14;101091.09;;;2.69;100.00
64340;BME280;63709;53.258;-8.814;2022-12-10T10:21:43;101104.34;;;2.89;100.00
64340;BME280;63709;53.258;-8.814;2022-12-10T10:24:14;101111.81;;;3.01;100.00
64340;BME280;63709;53.258;-8.814;2022-12-10T10:26:41;101108.44;;;3.20;100.00
64340;BME280;63709;53.258;-8.814;2022-12-10T10:29:11;101102.56;;;3.35;100.00
64340;BME280;63709;53.258;-8.814;2022-12-10T10:31:40;101104.03;;;3.42;100.00
64340;BME280;63709;53.258;-8.814;2022-12-10T10:34:17;101105.25;;;3.33;100.00
64340;BME280;63709;53.258;-8.814;2022-12-10T10:36:43;101108.06;;;3.29;100.00
64340;BME280;63709;53.258;-8.814;2022-12-10T10:41:43;101100.53;;;3.20;100.00
64340;BME280;63709;53.258;-8.814;2022-12-10T10:44:23;101102.78;;;3.29;100.00
64340;BME280;63709;53.258;-8.814;2022-12-10T10:46:52;101111.63;;;3.50;100.00
64340;BME280;63709;53.258;-8.814;2022-12-10T10:49:25;101103.31;;;3.59;100.00
64340;BME280;63709;53.258;-8.814;2022-12-10T10:51:54;101108.63;;;3.79;100.00
64340;BME280;63709;53.258;-8.814;2022-12-10T10:57:04;101111.22;;;4.01;100.00
64340;BME280;63709;53.258;-8.814;2022-12-10T10:59:36;101092.59;;;3.84;100.00
64340;BME280;63709;53.258;-8.814;2022-12-10T11:02:17;101121.50;;;3.87;100.00
64340;BME280;63709;53.258;-8.814;2022-12-10T11:04:48;101094.59;;;3.79;100.00
64340;BME280;63709;53.258;-8.814;2022-12-10T11:07:26;101081.63;;;3.73;100.00
64340;BME280;63709;53.258;-8.814;2022-12-10T11:09:59;101109.81;;;3.93;100.00
64340;BME280;63709;53.258;-8.814;2022-12-10T11:12:38;101107.38;;;3.88;100.00
64340;BME280;63709;53.258;-8.814;2022-12-10T11:15:29;101114.84;;;3.99;100.00
64340;BME280;63709;53.258;-8.814;2022-12-10T11:17:55;101111.03;;;4.06;100.00
64340;BME280;63709;53.258;-8.814;2022-12-10T11:20:23;101117.41;;;4.00;100.00
64340;BME280;63709;53.258;-8.814;2022-12-10T11:22:50;101109.09;;;4.09;100.00
64340;BME280;63709;53.258;-8.814;2022-12-10T11:25:17;101106.44;;;4.30;100.00
64340;BME280;63709;53.258;-8.814;2022-12-10T11:27:56;101101.00;;;4.33;100.00
64340;BME280;63709;53.258;-8.814;2022-12-10T11:30:40;101090.69;;;4.47;100.00
64340;BME280;63709;53.258;-8.814;2022-12-10T11:33:42;101101.00;;;4.53;100.00
64340;BME280;63709;53.258;-8.814;2022-12-10T11:41:53;101095.84;;;4.50;100.00
64340;BME280;63709;53.258;-8.814;2022-12-10T11:47:30;101098.75;;;4.44;100.00
64340;BME280;63709;53.258;-8.814;2022-12-10T11:56:26;101092.03;;;4.37;100.00
64340;BME280;63709;53.258;-8.814;2022-12-10T12:04:25;101087.28;;;4.45;100.00
64340;BME280;63709;53.258;-8.814;2022-12-10T12:09:51;101076.72;;;4.83;100.00
64340;BME280;63709;53.258;-8.814;2022-12-10T12:15:22;101088.47;;;5.14;100.00
64340;BME280;63709;53.258;-8.814;2022-12-10T12:17:56;101079.44;;;5.18;100.00
64340;BME280;63709;53.258;-8.814;2022-12-10T12:20:34;101079.16;;;5.24;100.00
64340;BME280;63709;53.258;-8.814;2022-12-10T12:23:26;101070.75;;;5.16;100.00
64340;BME280;63709;53.258;-8.814;2022-12-10T12:26:10;101053.50;;;5.07;100.00
64340;BME280;63709;53.258;-8.814;2022-12-10T12:28:54;101065.84;;;5.25;100.00
64340;BME280;63709;53.258;-8.814;2022-12-10T12:31:29;101082.00;;;5.38;100.00
64340;BME280;63709;53.258;-8.814;2022-12-10T12:36:49;101084.97;;;5.67;100.00
64340;BME280;63709;53.258;-8.814;2022-12-10T12:39:34;101080.38;;;5.70;100.00
64340;BME280;63709;53.258;-8.814;2022-12-10T12:45:17;101086.47;;;5.90;100.00
64340;BME280;63709;53.258;-8.814;2022-12-10T12:50:51;101082.81;;;6.10;100.00
64340;BME280;63709;53.258;-8.814;2022-12-10T12:53:22;101081.97;;;6.09;100.00
64340;BME280;63709;53.258;-8.814;2022-12-10T12:55:59;101092.75;;;6.22;100.00
64340;BME280;63709;53.258;-8.814;2022-12-10T13:03:54;101090.81;;;6.25;100.00
64340;BME280;63709;53.258;-8.814;2022-12-10T13:06:23;101092.91;;;6.19;100.00
64340;BME280;63709;53.258;-8.814;2022-12-10T13:11:42;101041.50;;;5.71;100.00
64340;BME280;63709;53.258;-8.814;2022-12-10T13:22:05;101090.38;;;5.82;100.00
64340;BME280;63709;53.258;-8.814;2022-12-10T13:29:54;101100.56;;;5.90;100.00
64340;BME280;63709;53.258;-8.814;2022-12-10T13:34:46;101101.66;;;6.03;100.00
64340;BME280;63709;53.258;-8.814;2022-12-10T13:37:26;101092.41;;;6.12;100.00
64340;BME280;63709;53.258;-8.814;2022-12-10T13:47:00;101091.63;;;6.43;100.00
64340;BME280;63709;53.258;-8.814;2022-12-10T13:49:30;101089.53;;;6.50;100.00
64340;BME280;63709;53.258;-8.814;2022-12-10T13:52:04;101040.41;;;6.10;100.00
64340;BME280;63709;53.258;-8.814;2022-12-10T13:54:58;101038.03;;;6.05;100.00
64340;BME280;63709;53.258;-8.814;2022-12-10T13:57:53;101078.00;;;6.34;100.00
64340;BME280;63709;53.258;-8.814;2022-12-10T14:00:48;101086.75;;;6.36;100.00
64340;BME280;63709;53.258;-8.814;2022-12-10T14:06:04;101100.19;;;6.48;100.00
64340;BME280;63709;53.258;-8.814;2022-12-10T14:08:36;101086.25;;;6.45;100.00
64340;BME280;63709;53.258;-8.814;2022-12-10T14:11:15;101066.72;;;6.30;100.00
64340;BME280;63709;53.258;-8.814;2022-12-10T14:13:47;101080.50;;;6.37;100.00
64340;BME280;63709;53.258;-8.814;2022-12-10T14:16:18;101034.34;;;6.07;100.00
64340;BME280;63709;53.258;-8.814;2022-12-10T14:18:53;101075.69;;;6.27;100.00
64340;BME280;63709;53.258;-8.814;2022-12-10T14:21:20;101079.91;;;6.32;100.00
64340;BME280;63709;53.258;-8.814;2022-12-10T14:23:48;101056.16;;;6.13;100.00
64340;BME280;63709;53.258;-8.814;2022-12-10T14:26:15;101077.81;;;6.21;100.00
64340;BME280;63709;53.258;-8.814;2022-12-10T14:28:45;101080.78;;;6.15;100.00
64340;BME280;63709;53.258;-8.814;2022-12-10T14:31:36;101079.38;;;6.07;100.00
64340;BME280;63709;53.258;-8.814;2022-12-10T14:34:06;101047.81;;;5.86;100.00